createdAt,value
2018-12-09T00:02:06.180Z,6.66
2018-12-09T00:04:48.245Z,6.65
2018-12-09T00:07:30.439Z,6.65
2018-12-09T00:10:12.530Z,6.59
2018-12-09T00:12:54.420Z,6.64
2018-12-09T00:15:37.648Z,6.73
2018-12-09T00:18:19.647Z,6.71
2018-12-09T00:21:02.073Z,6.76
2018-12-09T00:23:44.895Z,6.76
2018-12-09T00:26:27.054Z,6.76
2018-12-09T00:29:09.498Z,6.75
2018-12-09T00:31:51.580Z,6.73
2018-12-09T00:34:33.614Z,6.83
2018-12-09T00:37:15.205Z,6.87
2018-12-09T00:39:57.698Z,6.84
2018-12-09T00:42:43.633Z,6.88
2018-12-09T00:45:25.165Z,6.91
2018-12-09T00:48:07.529Z,6.90
2018-12-09T00:50:49.695Z,6.97
2018-12-09T00:53:31.537Z,6.95
2018-12-09T00:56:14.511Z,6.95
2018-12-09T00:58:56.586Z,6.92
2018-12-09T01:01:38.978Z,6.87
2018-12-09T01:04:22.015Z,6.90
2018-12-09T01:07:03.924Z,6.90
2018-12-09T01:09:47.311Z,6.93
2018-12-09T01:12:29.865Z,6.84
2018-12-09T01:15:12.024Z,6.85
2018-12-09T01:17:55.166Z,6.96
2018-12-09T01:20:37.758Z,6.94
2018-12-09T01:23:20.194Z,6.92
2018-12-09T01:26:02.358Z,6.99
2018-12-09T01:28:45.309Z,6.87
2018-12-09T01:31:26.841Z,6.54
2018-12-09T01:34:08.434Z,6.39
2018-12-09T01:36:50.803Z,6.42
2018-12-09T01:39:33.407Z,6.42
2018-12-09T01:42:16.920Z,6.47
2018-12-09T01:44:59.124Z,6.59
2018-12-09T01:47:41.294Z,6.78
2018-12-09T01:50:23.141Z,6.80
2018-12-09T01:53:17.103Z,6.84
2018-12-09T01:55:59.154Z,6.95
2018-12-09T01:58:41.669Z,7.00
2018-12-09T02:01:23.910Z,6.99
2018-12-09T02:04:05.518Z,7.01
2018-12-09T02:06:48.566Z,7.05
2018-12-09T02:09:31.082Z,7.15
2018-12-09T02:12:13.577Z,7.30
2018-12-09T02:14:55.910Z,7.36
2018-12-09T02:17:38.523Z,7.39
2018-12-09T02:20:21.189Z,7.50
2018-12-09T02:23:04.058Z,7.49
2018-12-09T02:25:45.914Z,7.47
2018-12-09T02:28:29.130Z,7.45
2018-12-09T02:31:13.173Z,7.40
2018-12-09T02:33:55.698Z,7.42
2018-12-09T02:36:38.052Z,7.39
2018-12-09T02:39:20.813Z,7.39
2018-12-09T02:42:03.597Z,7.34
2018-12-09T02:44:45.687Z,7.36
2018-12-09T02:47:27.221Z,7.41
2018-12-09T02:50:09.845Z,7.44
2018-12-09T02:52:52.027Z,7.43
2018-12-09T02:55:33.619Z,7.47
2018-12-09T02:58:16.124Z,7.45
2018-12-09T03:00:58.124Z,7.48
2018-12-09T03:03:40.038Z,7.49
2018-12-09T03:06:22.640Z,7.54
2018-12-09T03:09:06.658Z,7.55
2018-12-09T03:11:48.276Z,7.57
2018-12-09T03:14:30.275Z,7.54
2018-12-09T03:17:12.619Z,7.63
2018-12-09T03:19:54.563Z,7.63
2018-12-09T03:22:37.076Z,7.59
2018-12-09T03:25:19.872Z,7.52
2018-12-09T03:28:02.940Z,7.44
2018-12-09T03:30:46.122Z,7.38
2018-12-09T03:33:27.969Z,7.35
2018-12-09T03:36:10.391Z,7.35
2018-12-09T03:38:51.977Z,7.36
2018-12-09T03:41:34.042Z,7.41
2018-12-09T03:44:16.332Z,7.48
2018-12-09T03:47:07.193Z,7.41
2018-12-09T03:49:50.786Z,7.35
2018-12-09T03:52:33.060Z,7.36
2018-12-09T03:55:15.410Z,7.35
2018-12-09T03:57:57.921Z,7.33
2018-12-09T04:00:40.258Z,7.28
2018-12-09T04:03:23.253Z,7.32
2018-12-09T04:06:06.354Z,7.29
2018-12-09T04:08:49.075Z,7.29
2018-12-09T04:11:31.491Z,7.33
2018-12-09T04:14:13.902Z,7.30
2018-12-09T04:16:56.786Z,7.30
2018-12-09T04:19:39.206Z,7.22
2018-12-09T04:22:21.159Z,7.17
2018-12-09T04:25:03.990Z,7.18
2018-12-09T04:27:46.667Z,7.18
2018-12-09T04:30:28.870Z,7.28
2018-12-09T04:33:11.239Z,7.25
2018-12-09T04:35:53.765Z,7.34
2018-12-09T04:38:35.863Z,7.24
2018-12-09T04:41:18.468Z,7.25
2018-12-09T04:44:00.766Z,7.30
2018-12-09T04:46:43.214Z,7.29
2018-12-09T04:49:25.709Z,7.33
2018-12-09T04:52:08.483Z,7.39
2018-12-09T04:54:50.541Z,7.41
2018-12-09T04:57:33.111Z,7.40
2018-12-09T05:00:25.765Z,7.54
2018-12-09T05:03:08.362Z,7.51
2018-12-09T05:05:49.811Z,7.53
2018-12-09T05:08:31.866Z,7.55
2018-12-09T05:11:13.705Z,7.53
2018-12-09T05:13:55.395Z,7.50
2018-12-09T05:16:37.557Z,7.49
2018-12-09T05:19:19.781Z,7.47
2018-12-09T05:22:01.986Z,7.43
2018-12-09T05:24:44.317Z,7.40
2018-12-09T05:27:26.205Z,7.46
2018-12-09T05:30:08.966Z,7.38
2018-12-09T05:32:51.578Z,7.38
2018-12-09T05:35:33.842Z,7.42
2018-12-09T05:38:15.222Z,7.43
2018-12-09T05:40:57.442Z,7.45
2018-12-09T05:43:40.105Z,7.43
2018-12-09T05:46:23.155Z,7.45
2018-12-09T05:49:05.064Z,7.52
2018-12-09T05:51:46.638Z,7.50
2018-12-09T05:54:29.221Z,7.48
2018-12-09T05:57:11.890Z,7.50
2018-12-09T05:59:54.248Z,7.49
2018-12-09T06:02:53.949Z,7.49
2018-12-09T06:05:36.465Z,7.47
2018-12-09T06:08:18.242Z,7.43
2018-12-09T06:11:00.552Z,7.42
2018-12-09T06:13:43.048Z,7.41
2018-12-09T06:16:25.383Z,7.43
2018-12-09T06:19:08.358Z,7.39
2018-12-09T06:21:51.075Z,7.41
2018-12-09T06:24:33.585Z,7.38
2018-12-09T06:27:15.992Z,7.38
2018-12-09T06:29:58.492Z,7.38
2018-12-09T06:32:41.242Z,7.36
2018-12-09T06:39:08.137Z,7.34
2018-12-09T06:41:50.138Z,7.34
2018-12-09T06:44:32.313Z,7.32
2018-12-09T06:47:15.027Z,7.35
2018-12-09T06:49:57.818Z,7.36
2018-12-09T06:52:39.587Z,7.41
2018-12-09T06:55:21.922Z,7.43
2018-12-09T06:58:03.603Z,7.42
2018-12-09T07:00:46.202Z,7.43
2018-12-09T07:03:29.055Z,7.43
2018-12-09T07:06:11.357Z,7.45
2018-12-09T07:08:54.080Z,7.48
2018-12-09T07:11:36.192Z,7.58
2018-12-09T07:14:18.788Z,7.52
2018-12-09T07:17:00.885Z,7.50
2018-12-09T07:19:43.513Z,7.48
2018-12-09T07:22:26.830Z,7.44
2018-12-09T07:25:09.112Z,7.43
2018-12-09T07:27:51.446Z,7.41
2018-12-09T07:30:34.238Z,7.32
2018-12-09T07:33:16.304Z,7.35
2018-12-09T07:35:58.881Z,7.33
2018-12-09T07:38:41.225Z,7.32
2018-12-09T07:41:24.748Z,7.35
2018-12-09T07:44:07.789Z,7.34
2018-12-09T07:46:49.349Z,7.35
2018-12-09T07:49:30.972Z,7.30
2018-12-09T07:52:13.539Z,7.33
2018-12-09T07:54:56.216Z,7.29
2018-12-09T07:57:38.279Z,7.30
2018-12-09T08:00:21.718Z,7.33
2018-12-09T08:03:03.377Z,7.35
2018-12-09T08:05:45.024Z,7.39
2018-12-09T08:08:27.492Z,7.50
2018-12-09T08:11:10.685Z,7.45
2018-12-09T08:13:52.534Z,7.59
2018-12-09T08:16:34.103Z,7.57
2018-12-09T08:19:16.054Z,7.53
2018-12-09T08:21:58.678Z,7.51
2018-12-09T08:24:40.728Z,7.52
2018-12-09T08:27:22.421Z,7.53
2018-12-09T08:30:05.374Z,7.49
2018-12-09T08:32:47.771Z,7.43
2018-12-09T08:35:30.092Z,7.43
2018-12-09T08:38:12.731Z,7.37
2018-12-09T08:40:54.145Z,7.25
2018-12-09T08:43:38.182Z,7.18
2018-12-09T08:46:20.254Z,7.11
2018-12-09T08:49:01.938Z,6.94
2018-12-09T08:51:44.817Z,6.89
2018-12-09T08:54:28.738Z,6.87
2018-12-09T08:57:11.942Z,6.81
2018-12-09T08:59:53.787Z,6.86
2018-12-09T09:02:36.803Z,6.86
2018-12-09T09:05:19.657Z,6.86
2018-12-09T09:08:01.273Z,6.74
2018-12-09T09:10:43.955Z,6.60
2018-12-09T09:13:25.735Z,6.51
2018-12-09T09:16:10.912Z,6.45
2018-12-09T09:18:52.702Z,6.41
2018-12-09T09:21:35.812Z,6.42
2018-12-09T09:24:17.862Z,6.40
2018-12-09T09:27:00.283Z,6.50
2018-12-09T09:29:42.150Z,6.42
2018-12-09T09:32:25.310Z,6.45
2018-12-09T09:35:07.866Z,6.56
2018-12-09T09:37:50.356Z,6.48
2018-12-09T09:40:32.117Z,6.45
2018-12-09T09:43:14.403Z,6.46
2018-12-09T09:45:55.934Z,6.49
2018-12-09T09:48:37.925Z,6.50
2018-12-09T09:51:20.020Z,6.43
2018-12-09T09:54:02.504Z,6.52
2018-12-09T09:56:44.034Z,6.59
2018-12-09T09:59:25.670Z,6.75
2018-12-09T10:02:07.724Z,6.58
2018-12-09T10:04:50.232Z,6.59
2018-12-09T10:07:33.074Z,6.45
2018-12-09T10:10:15.096Z,6.44
2018-12-09T10:12:57.285Z,6.43
2018-12-09T10:15:40.229Z,6.34
2018-12-09T10:18:22.237Z,6.35
2018-12-09T10:21:04.827Z,6.24
2018-12-09T10:23:46.965Z,6.28
2018-12-09T10:26:36.215Z,6.36
2018-12-09T10:29:14.074Z,6.38
2018-12-09T10:31:56.084Z,6.43
2018-12-09T10:34:38.922Z,6.53
2018-12-09T10:37:22.501Z,6.64
2018-12-09T10:40:05.930Z,6.58
2018-12-09T10:42:47.986Z,6.78
2018-12-09T10:45:30.235Z,6.73
2018-12-09T10:48:12.381Z,6.70
2018-12-09T10:50:55.153Z,6.71
2018-12-09T10:53:37.454Z,6.65
2018-12-09T10:56:20.326Z,6.80
2018-12-09T10:59:02.330Z,6.68
2018-12-09T11:01:50.957Z,6.64
2018-12-09T11:04:33.214Z,6.65
2018-12-09T11:07:15.047Z,6.82
2018-12-09T11:09:57.634Z,6.91
2018-12-09T11:12:39.870Z,6.96
2018-12-09T11:15:21.880Z,7.17
2018-12-09T11:18:04.027Z,7.23
2018-12-09T11:20:46.503Z,7.18
2018-12-09T11:23:28.104Z,7.13
2018-12-09T11:26:11.695Z,6.97
2018-12-09T11:28:54.186Z,6.99
2018-12-09T11:31:36.538Z,7.01
2018-12-09T11:34:18.834Z,7.25
2018-12-09T11:37:00.557Z,7.15
2018-12-09T11:39:42.537Z,7.20
2018-12-09T11:42:25.393Z,6.99
2018-12-09T11:45:07.500Z,7.00
2018-12-09T11:47:50.022Z,6.91
2018-12-09T11:50:33.033Z,7.11
2018-12-09T11:53:15.326Z,6.91
2018-12-09T11:55:58.259Z,6.91
2018-12-09T11:58:40.366Z,7.06
2018-12-09T12:01:24.489Z,7.21
2018-12-09T12:04:07.458Z,7.18
2018-12-09T12:06:49.532Z,7.27
2018-12-09T12:09:31.006Z,7.22
2018-12-09T12:12:12.849Z,7.31
2018-12-09T12:14:55.920Z,7.12
2018-12-09T12:17:38.213Z,7.07
2018-12-09T12:20:21.524Z,7.11
2018-12-09T12:23:04.182Z,7.29
2018-12-09T12:25:47.634Z,7.68
2018-12-09T12:28:31.129Z,7.84
2018-12-09T12:31:15.112Z,7.87
2018-12-09T12:33:57.747Z,8.10
2018-12-09T12:36:40.762Z,7.71
2018-12-09T12:39:23.562Z,7.60
2018-12-09T12:42:06.769Z,7.39
2018-12-09T12:44:49.520Z,7.39
2018-12-09T12:47:32.304Z,7.32
2018-12-09T12:50:14.864Z,7.51
2018-12-09T12:52:56.999Z,7.63
2018-12-09T12:55:39.951Z,7.42
2018-12-09T12:58:21.994Z,7.44
2018-12-09T13:01:05.500Z,7.40
2018-12-09T13:03:47.970Z,7.42
2018-12-09T13:06:31.162Z,7.47
2018-12-09T13:09:13.222Z,7.53
2018-12-09T13:11:56.546Z,7.54
2018-12-09T13:14:39.978Z,7.43
2018-12-09T13:17:22.655Z,7.48
2018-12-09T13:20:05.822Z,7.53
2018-12-09T13:22:47.633Z,7.55
2018-12-09T13:25:30.354Z,7.58
2018-12-09T13:28:12.238Z,7.59
2018-12-09T13:30:54.426Z,7.62
2018-12-09T13:33:36.169Z,7.70
2018-12-09T13:36:18.607Z,7.75
2018-12-09T13:39:01.283Z,7.77
2018-12-09T13:41:42.825Z,7.69
2018-12-09T13:44:24.351Z,7.76
2018-12-09T13:47:05.939Z,7.80
2018-12-09T13:49:47.641Z,7.80
2018-12-09T13:52:30.142Z,7.82
2018-12-09T13:55:12.938Z,7.90
2018-12-09T13:57:56.283Z,7.89
2018-12-09T14:00:39.267Z,7.90
2018-12-09T14:03:21.014Z,7.91
2018-12-09T14:06:02.591Z,7.98
2018-12-09T14:08:45.657Z,8.01
2018-12-09T14:11:29.062Z,8.09
2018-12-09T14:14:11.081Z,7.95
2018-12-09T14:16:52.818Z,8.00
2018-12-09T14:19:35.794Z,8.07
2018-12-09T14:22:17.757Z,8.09
2018-12-09T14:25:00.814Z,8.06
2018-12-09T14:27:43.180Z,8.13
2018-12-09T14:30:25.470Z,8.15
2018-12-09T14:33:08.471Z,8.13
2018-12-09T14:35:49.914Z,8.12
2018-12-09T14:38:31.502Z,8.17
2018-12-09T14:41:13.445Z,8.12
2018-12-09T14:43:55.918Z,8.14
2018-12-09T14:46:39.085Z,8.06
2018-12-09T14:49:21.153Z,8.00
2018-12-09T14:52:03.362Z,8.01
2018-12-09T14:54:45.098Z,8.04
2018-12-09T14:57:27.650Z,8.01
2018-12-09T15:00:10.571Z,7.98
2018-12-09T15:02:52.811Z,7.94
2018-12-09T15:05:35.821Z,7.88
2018-12-09T15:08:17.759Z,7.78
2018-12-09T15:11:00.730Z,7.60
2018-12-09T15:13:42.745Z,6.84
2018-12-09T15:16:24.103Z,6.03
2018-12-09T15:19:06.156Z,5.83
2018-12-09T15:21:48.590Z,5.80
2018-12-09T15:24:31.417Z,5.83
2018-12-09T15:27:13.565Z,5.93
2018-12-09T15:29:55.293Z,6.10
2018-12-09T15:32:37.892Z,6.22
2018-12-09T15:35:20.274Z,6.27
2018-12-09T15:38:02.682Z,6.66
2018-12-09T15:40:44.273Z,6.82
2018-12-09T15:43:26.223Z,6.97
2018-12-09T15:46:08.464Z,7.10
2018-12-09T15:48:51.581Z,7.13
2018-12-09T15:51:33.767Z,7.08
2018-12-09T15:54:16.685Z,7.03
2018-12-09T15:56:58.579Z,7.10
2018-12-09T15:59:40.637Z,7.12
2018-12-09T16:02:22.472Z,7.06
2018-12-09T16:05:05.414Z,7.04
2018-12-09T16:07:47.701Z,7.19
2018-12-09T16:10:30.031Z,7.17
2018-12-09T16:13:12.459Z,7.19
2018-12-09T16:15:54.652Z,7.17
2018-12-09T16:18:36.923Z,7.18
2018-12-09T16:21:19.330Z,7.24
2018-12-09T16:24:02.144Z,7.18
2018-12-09T16:26:44.472Z,7.17
2018-12-09T16:29:26.782Z,7.16
2018-12-09T16:32:09.505Z,7.29
2018-12-09T16:34:51.861Z,7.24
2018-12-09T16:37:33.919Z,7.09
2018-12-09T16:40:15.542Z,6.81
2018-12-09T16:43:03.911Z,6.62
2018-12-09T16:45:45.872Z,6.30
2018-12-09T16:48:28.084Z,6.22
2018-12-09T16:51:10.733Z,6.20
2018-12-09T16:53:53.448Z,6.22
2018-12-09T16:56:36.079Z,6.27
2018-12-09T16:59:18.378Z,6.43
2018-12-09T17:02:03.454Z,6.59
2018-12-09T17:04:44.977Z,6.68
2018-12-09T17:07:27.620Z,6.65
2018-12-09T17:10:09.414Z,6.58
2018-12-09T17:12:52.061Z,6.42
2018-12-09T17:15:35.469Z,6.31
2018-12-09T17:18:17.659Z,6.23
2018-12-09T17:20:59.493Z,6.20
2018-12-09T17:23:41.850Z,6.19
2018-12-09T17:26:23.886Z,6.17
2018-12-09T17:29:06.424Z,6.09
2018-12-09T17:31:48.601Z,6.14
2018-12-09T17:34:31.217Z,6.11
2018-12-09T17:37:14.203Z,6.03
2018-12-09T17:39:56.411Z,6.08
2018-12-09T17:42:38.423Z,6.17
2018-12-09T17:45:21.118Z,6.15
2018-12-09T17:48:03.735Z,6.28
2018-12-09T17:50:46.239Z,6.34
2018-12-09T17:53:28.781Z,6.38
2018-12-09T17:56:12.539Z,6.44
2018-12-09T17:58:54.920Z,6.55
2018-12-09T18:01:37.162Z,6.42
2018-12-09T18:04:19.424Z,6.44
2018-12-09T18:07:02.039Z,6.45
2018-12-09T18:09:56.055Z,6.45
2018-12-09T18:12:38.839Z,6.40
2018-12-09T18:15:22.989Z,6.40
2018-12-09T18:18:05.330Z,6.38
2018-12-09T18:20:47.001Z,6.27
2018-12-09T18:23:29.417Z,6.36
2018-12-09T18:26:11.587Z,6.32
2018-12-09T18:28:53.549Z,6.31
2018-12-09T18:31:36.157Z,6.28
2018-12-09T18:34:19.105Z,6.38
2018-12-09T18:37:01.558Z,6.32
2018-12-09T18:39:44.034Z,6.27
2018-12-09T18:42:26.486Z,6.30
2018-12-09T18:45:08.914Z,6.31
2018-12-09T18:47:51.194Z,6.23
2018-12-09T18:50:33.267Z,6.26
2018-12-09T18:53:16.365Z,6.27
2018-12-09T18:56:00.853Z,6.22
2018-12-09T18:58:43.765Z,6.27
2018-12-09T19:01:25.757Z,6.30
2018-12-09T19:04:07.376Z,6.29
2018-12-09T19:06:48.761Z,6.38
2018-12-09T19:09:30.417Z,6.42
2018-12-09T19:12:12.330Z,6.35
2018-12-09T19:14:54.562Z,6.31
2018-12-09T19:17:36.155Z,6.18
2018-12-09T19:20:17.814Z,6.17
2018-12-09T19:23:00.236Z,6.20
2018-12-09T19:25:42.545Z,6.10
2018-12-09T19:28:24.091Z,6.06
2018-12-09T19:31:05.566Z,6.03
2018-12-09T19:33:46.911Z,6.06
2018-12-09T19:36:28.646Z,5.93
2018-12-09T19:39:10.407Z,6.01
2018-12-09T19:41:52.806Z,5.98
2018-12-09T19:44:34.521Z,6.02
2018-12-09T19:47:16.915Z,6.08
2018-12-09T19:49:59.462Z,6.13
2018-12-09T19:52:42.014Z,6.06
2018-12-09T19:55:24.679Z,6.14
2018-12-09T19:58:06.924Z,6.13
2018-12-09T20:00:49.718Z,6.11
2018-12-09T20:03:32.050Z,6.05
2018-12-09T20:06:14.491Z,5.96
2018-12-09T20:08:57.655Z,6.03
2018-12-09T20:11:39.492Z,6.05
2018-12-09T20:14:21.546Z,6.13
2018-12-09T20:17:04.454Z,6.11
2018-12-09T20:19:46.325Z,6.18
2018-12-09T20:22:29.075Z,6.13
2018-12-09T20:25:11.560Z,6.11
2018-12-09T20:27:54.271Z,6.10
2018-12-09T20:30:36.536Z,6.10
2018-12-09T20:33:19.291Z,6.05
2018-12-09T20:36:03.133Z,6.00
2018-12-09T20:38:45.646Z,6.00
2018-12-09T20:41:28.254Z,5.94
2018-12-09T20:44:10.991Z,5.95
2018-12-09T20:46:52.885Z,5.82
2018-12-09T20:49:35.477Z,5.90
2018-12-09T20:52:18.010Z,5.85
2018-12-09T20:55:01.234Z,5.67
2018-12-09T20:57:43.949Z,5.52
2018-12-09T21:00:26.021Z,5.55
2018-12-09T21:03:09.608Z,5.61
2018-12-09T21:05:52.279Z,5.49
2018-12-09T21:08:34.812Z,5.48
2018-12-09T21:11:16.931Z,5.49
2018-12-09T21:13:59.725Z,5.39
2018-12-09T21:16:42.111Z,5.40
2018-12-09T21:19:26.468Z,5.38
2018-12-09T21:22:08.617Z,5.37
2018-12-09T21:24:51.363Z,5.36
2018-12-09T21:27:34.093Z,5.31
2018-12-09T21:30:16.977Z,5.29
2018-12-09T21:33:02.807Z,5.19
2018-12-09T21:35:45.944Z,5.32
2018-12-09T21:38:27.675Z,5.31
2018-12-09T21:41:10.540Z,5.27
2018-12-09T21:43:53.790Z,5.34
2018-12-09T21:46:36.384Z,5.31
2018-12-09T21:49:18.700Z,5.31
2018-12-09T21:52:01.931Z,5.22
2018-12-09T21:54:44.231Z,5.14
2018-12-09T21:57:26.439Z,5.08
2018-12-09T22:00:09.538Z,4.96
2018-12-09T22:02:52.358Z,4.89
2018-12-09T22:05:34.853Z,4.87
2018-12-09T22:08:17.702Z,4.83
2018-12-09T22:10:59.714Z,4.88
2018-12-09T22:13:42.545Z,5.00
2018-12-09T22:16:25.049Z,4.95
2018-12-09T22:19:07.427Z,4.91
2018-12-09T22:21:50.950Z,4.93
2018-12-09T22:24:33.175Z,4.87
2018-12-09T22:27:15.900Z,4.78
2018-12-09T22:29:57.998Z,4.88
2018-12-09T22:32:40.902Z,4.84
2018-12-09T22:39:00.835Z,4.75
2018-12-09T22:41:42.797Z,4.72
2018-12-09T22:44:25.082Z,4.68
2018-12-09T22:47:07.733Z,4.61
2018-12-09T22:49:50.809Z,4.54
2018-12-09T22:52:32.866Z,4.55
2018-12-09T22:55:15.518Z,4.59
2018-12-09T22:57:58.152Z,4.70
2018-12-09T23:00:45.308Z,4.74
2018-12-09T23:03:28.423Z,4.76
2018-12-09T23:06:11.086Z,4.82
2018-12-09T23:08:53.644Z,4.87
2018-12-09T23:11:35.934Z,4.91
2018-12-09T23:14:18.664Z,4.93
2018-12-09T23:17:01.358Z,5.01
2018-12-09T23:19:44.175Z,4.95
2018-12-09T23:22:26.102Z,4.93
2018-12-09T23:25:08.849Z,4.85
2018-12-09T23:27:50.969Z,4.77
2018-12-09T23:30:33.444Z,4.72
2018-12-09T23:33:16.535Z,4.71
2018-12-09T23:35:58.965Z,4.77
2018-12-09T23:38:41.369Z,4.74
2018-12-09T23:41:24.372Z,4.70
2018-12-09T23:44:07.393Z,4.63
2018-12-09T23:46:49.726Z,4.66
2018-12-09T23:49:32.601Z,4.67
2018-12-09T23:52:14.721Z,4.69
2018-12-09T23:54:57.630Z,4.71
2018-12-09T23:57:40.453Z,4.73
